sensor_id;sensor_type;location;lat;lon;timestamp;P1;durP1;ratioP1;P2;durP2;ratioP2
2039;SDS011;1025;42.686;23.350;2023-04-01T00:00:23;23.87;;;18.03;;
2039;SDS011;1025;42.686;23.350;2023-04-01T00:03:49;18.47;;;13.60;;
2039;SDS011;1025;42.686;23.350;2023-04-01T00:07:15;22.30;;;14.90;;
2039;SDS011;1025;42.686;23.350;2023-04-01T00:10:40;15.23;;;12.53;;
2039;SDS011;1025;42.686;23.350;2023-04-01T00:14:07;20.50;;;11.83;;
2039;SDS011;1025;42.686;23.350;2023-04-01T00:17:34;15.47;;;12.10;;
2039;SDS011;1025;42.686;23.350;2023-04-01T00:20:59;12.87;;;11.57;;
2039;SDS011;1025;42.686;23.350;2023-04-01T00:24:24;11.83;;;10.57;;
2039;SDS011;1025;42.686;23.350;2023-04-01T00:27:50;12.20;;;9.50;;
2039;SDS011;1025;42.686;23.350;2023-04-01T00:31:17;12.97;;;10.73;;
2039;SDS011;1025;42.686;23.350;2023-04-01T00:34:42;12.73;;;10.57;;
2039;SDS011;1025;42.686;23.350;2023-04-01T00:38:08;13.43;;;10.50;;
2039;SDS011;1025;42.686;23.350;2023-04-01T00:41:33;16.00;;;11.37;;
2039;SDS011;1025;42.686;23.350;2023-04-01T00:45:21;12.47;;;10.30;;
2039;SDS011;1025;42.686;23.350;2023-04-01T00:48:47;11.80;;;8.83;;
2039;SDS011;1025;42.686;23.350;2023-04-01T00:52:17;10.47;;;9.43;;
2039;SDS011;1025;42.686;23.350;2023-04-01T00:55:48;14.83;;;11.23;;
2039;SDS011;1025;42.686;23.350;2023-04-01T00:59:21;10.73;;;9.10;;
2039;SDS011;1025;42.686;23.350;2023-04-01T01:02:49;11.50;;;8.80;;
2039;SDS011;1025;42.686;23.350;2023-04-01T01:06:21;19.37;;;10.33;;
2039;SDS011;1025;42.686;23.350;2023-04-01T01:09:55;10.47;;;9.13;;
2039;SDS011;1025;42.686;23.350;2023-04-01T01:13:25;12.20;;;9.57;;
2039;SDS011;1025;42.686;23.350;2023-04-01T01:17:02;11.57;;;10.43;;
2039;SDS011;1025;42.686;23.350;2023-04-01T01:28:26;11.50;;;9.07;;
2039;SDS011;1025;42.686;23.350;2023-04-01T01:32:13;13.90;;;7.40;;
2039;SDS011;1025;42.686;23.350;2023-04-01T01:35:47;11.10;;;8.47;;
2039;SDS011;1025;42.686;23.350;2023-04-01T01:39:16;9.33;;;7.90;;
2039;SDS011;1025;42.686;23.350;2023-04-01T01:42:43;7.27;;;6.43;;
2039;SDS011;1025;42.686;23.350;2023-04-01T01:46:13;6.93;;;6.23;;
2039;SDS011;1025;42.686;23.350;2023-04-01T01:49:40;10.13;;;6.90;;
2039;SDS011;1025;42.686;23.350;2023-04-01T01:53:09;6.17;;;5.53;;
2039;SDS011;1025;42.686;23.350;2023-04-01T01:56:37;14.83;;;7.53;;
2039;SDS011;1025;42.686;23.350;2023-04-01T02:00:04;7.50;;;6.60;;
2039;SDS011;1025;42.686;23.350;2023-04-01T02:03:33;7.77;;;6.57;;
2039;SDS011;1025;42.686;23.350;2023-04-01T02:07:01;9.80;;;6.53;;
2039;SDS011;1025;42.686;23.350;2023-04-01T02:10:34;9.30;;;7.23;;
2039;SDS011;1025;42.686;23.350;2023-04-01T02:14:03;10.27;;;7.43;;
2039;SDS011;1025;42.686;23.350;2023-04-01T02:17:33;10.37;;;7.73;;
2039;SDS011;1025;42.686;23.350;2023-04-01T02:21:00;12.33;;;7.17;;
2039;SDS011;1025;42.686;23.350;2023-04-01T02:24:28;14.13;;;7.37;;
2039;SDS011;1025;42.686;23.350;2023-04-01T02:27:56;5.97;;;5.20;;
2039;SDS011;1025;42.686;23.350;2023-04-01T02:31:23;17.87;;;6.80;;
2039;SDS011;1025;42.686;23.350;2023-04-01T02:34:46;12.93;;;8.13;;
2039;SDS011;1025;42.686;23.350;2023-04-01T02:38:11;12.00;;;6.93;;
2039;SDS011;1025;42.686;23.350;2023-04-01T02:41:40;8.80;;;6.87;;
2039;SDS011;1025;42.686;23.350;2023-04-01T02:45:00;10.13;;;7.17;;
2039;SDS011;1025;42.686;23.350;2023-04-01T02:48:26;19.83;;;8.30;;
2039;SDS011;1025;42.686;23.350;2023-04-01T02:51:52;9.37;;;7.53;;
2039;SDS011;1025;42.686;23.350;2023-04-01T02:55:17;11.10;;;7.53;;
2039;SDS011;1025;42.686;23.350;2023-04-01T02:58:42;11.00;;;8.93;;
2039;SDS011;1025;42.686;23.350;2023-04-01T03:02:01;13.63;;;9.93;;
2039;SDS011;1025;42.686;23.350;2023-04-01T03:05:05;13.80;;;10.17;;
2039;SDS011;1025;42.686;23.350;2023-04-01T03:08:31;12.87;;;10.20;;
2039;SDS011;1025;42.686;23.350;2023-04-01T03:11:29;15.23;;;9.63;;
2039;SDS011;1025;42.686;23.350;2023-04-01T03:14:31;13.20;;;9.70;;
2039;SDS011;1025;42.686;23.350;2023-04-01T03:16:57;14.67;;;10.10;;
2039;SDS011;1025;42.686;23.350;2023-04-01T03:19:27;16.97;;;10.20;;
2039;SDS011;1025;42.686;23.350;2023-04-01T03:22:11;12.87;;;9.30;;
2039;SDS011;1025;42.686;23.350;2023-04-01T03:24:38;11.50;;;9.20;;
2039;SDS011;1025;42.686;23.350;2023-04-01T03:27:09;13.53;;;11.60;;
2039;SDS011;1025;42.686;23.350;2023-04-01T03:30:29;16.50;;;10.30;;
2039;SDS011;1025;42.686;23.350;2023-04-01T03:32:57;15.70;;;10.53;;
2039;SDS011;1025;42.686;23.350;2023-04-01T03:35:41;13.80;;;11.60;;
2039;SDS011;1025;42.686;23.350;2023-04-01T03:38:10;12.77;;;10.90;;
2039;SDS011;1025;42.686;23.350;2023-04-01T03:41:35;13.57;;;10.73;;
2039;SDS011;1025;42.686;23.350;2023-04-01T03:45:01;15.30;;;11.03;;
2039;SDS011;1025;42.686;23.350;2023-04-01T03:48:26;14.70;;;10.10;;
2039;SDS011;1025;42.686;23.350;2023-04-01T03:51:53;12.40;;;11.20;;
2039;SDS011;1025;42.686;23.350;2023-04-01T03:55:19;12.63;;;9.70;;
2039;SDS011;1025;42.686;23.350;2023-04-01T03:57:56;18.10;;;9.97;;
2039;SDS011;1025;42.686;23.350;2023-04-01T04:01:15;11.47;;;10.30;;
2039;SDS011;1025;42.686;23.350;2023-04-01T04:04:10;16.03;;;8.77;;
2039;SDS011;1025;42.686;23.350;2023-04-01T04:06:43;12.60;;;8.63;;
2039;SDS011;1025;42.686;23.350;2023-04-01T04:10:10;13.93;;;9.20;;
2039;SDS011;1025;42.686;23.350;2023-04-01T04:13:41;16.40;;;9.27;;
2039;SDS011;1025;42.686;23.350;2023-04-01T04:17:09;11.93;;;8.27;;
2039;SDS011;1025;42.686;23.350;2023-04-01T04:20:37;11.07;;;8.33;;
2039;SDS011;1025;42.686;23.350;2023-04-01T04:24:14;8.50;;;7.37;;
2039;SDS011;1025;42.686;23.350;2023-04-01T04:27:39;8.77;;;7.63;;
2039;SDS011;1025;42.686;23.350;2023-04-01T04:31:01;9.13;;;8.00;;
2039;SDS011;1025;42.686;23.350;2023-04-01T04:34:28;15.43;;;10.00;;
2039;SDS011;1025;42.686;23.350;2023-04-01T04:38:07;9.57;;;7.83;;
2039;SDS011;1025;42.686;23.350;2023-04-01T04:41:24;9.17;;;7.20;;
2039;SDS011;1025;42.686;23.350;2023-04-01T04:44:49;9.40;;;8.10;;
2039;SDS011;1025;42.686;23.350;2023-04-01T04:48:09;7.57;;;6.30;;
2039;SDS011;1025;42.686;23.350;2023-04-01T04:51:19;9.63;;;6.00;;
2039;SDS011;1025;42.686;23.350;2023-04-01T04:54:44;14.60;;;6.60;;
2039;SDS011;1025;42.686;23.350;2023-04-01T04:58:10;12.50;;;8.83;;
2039;SDS011;1025;42.686;23.350;2023-04-01T05:01:35;8.77;;;7.43;;
2039;SDS011;1025;42.686;23.350;2023-04-01T05:04:17;10.27;;;8.50;;
2039;SDS011;1025;42.686;23.350;2023-04-01T05:07:43;15.63;;;6.70;;
2039;SDS011;1025;42.686;23.350;2023-04-01T05:11:09;12.87;;;7.63;;
2039;SDS011;1025;42.686;23.350;2023-04-01T05:14:39;15.70;;;8.30;;
2039;SDS011;1025;42.686;23.350;2023-04-01T05:18:04;16.07;;;7.30;;
2039;SDS011;1025;42.686;23.350;2023-04-01T05:21:29;15.03;;;9.73;;
2039;SDS011;1025;42.686;23.350;2023-04-01T05:24:54;10.00;;;7.20;;
2039;SDS011;1025;42.686;23.350;2023-04-01T05:28:22;10.70;;;7.80;;
2039;SDS011;1025;42.686;23.350;2023-04-01T05:31:48;12.93;;;8.37;;
2039;SDS011;1025;42.686;23.350;2023-04-01T05:35:14;15.00;;;8.70;;
2039;SDS011;1025;42.686;23.350;2023-04-01T05:38:39;9.20;;;7.17;;
2039;SDS011;1025;42.686;23.350;2023-04-01T05:42:05;17.07;;;10.20;;
2039;SDS011;1025;42.686;23.350;2023-04-01T05:45:26;15.07;;;9.13;;
2039;SDS011;1025;42.686;23.350;2023-04-01T05:48:53;14.87;;;8.57;;
2039;SDS011;1025;42.686;23.350;2023-04-01T05:52:16;8.00;;;7.20;;
2039;SDS011;1025;42.686;23.350;2023-04-01T05:55:37;9.53;;;6.50;;
2039;SDS011;1025;42.686;23.350;2023-04-01T05:59:01;6.20;;;5.70;;
2039;SDS011;1025;42.686;23.350;2023-04-01T06:02:26;19.70;;;6.70;;
2039;SDS011;1025;42.686;23.350;2023-04-01T06:05:08;8.10;;;6.23;;
2039;SDS011;1025;42.686;23.350;2023-04-01T06:07:44;10.27;;;5.53;;
2039;SDS011;1025;42.686;23.350;2023-04-01T06:10:18;6.37;;;4.53;;
2039;SDS011;1025;42.686;23.350;2023-04-01T06:13:25;5.17;;;4.67;;
2039;SDS011;1025;42.686;23.350;2023-04-01T06:17:01;5.07;;;4.27;;
2039;SDS011;1025;42.686;23.350;2023-04-01T06:21:07;6.80;;;4.43;;
2039;SDS011;1025;42.686;23.350;2023-04-01T06:32:20;6.73;;;5.30;;
2039;SDS011;1025;42.686;23.350;2023-04-01T06:35:08;13.90;;;6.00;;
2039;SDS011;1025;42.686;23.350;2023-04-01T06:38:38;8.13;;;5.83;;
2039;SDS011;1025;42.686;23.350;2023-04-01T06:41:32;8.17;;;5.27;;
2039;SDS011;1025;42.686;23.350;2023-04-01T06:45:12;7.40;;;5.47;;
2039;SDS011;1025;42.686;23.350;2023-04-01T06:48:02;7.70;;;4.97;;
2039;SDS011;1025;42.686;23.350;2023-04-01T06:51:48;7.20;;;5.27;;
2039;SDS011;1025;42.686;23.350;2023-04-01T06:55:26;6.33;;;5.03;;
2039;SDS011;1025;42.686;23.350;2023-04-01T06:58:53;9.90;;;5.40;;
2039;SDS011;1025;42.686;23.350;2023-04-01T07:02:23;10.17;;;5.60;;
2039;SDS011;1025;42.686;23.350;2023-04-01T07:05:05;13.93;;;5.17;;
2039;SDS011;1025;42.686;23.350;2023-04-01T07:08:35;14.90;;;5.87;;
2039;SDS011;1025;42.686;23.350;2023-04-01T07:11:34;9.37;;;5.17;;
2039;SDS011;1025;42.686;23.350;2023-04-01T07:14:48;12.47;;;7.50;;
2039;SDS011;1025;42.686;23.350;2023-04-01T07:18:19;8.03;;;5.30;;
2039;SDS011;1025;42.686;23.350;2023-04-01T07:21:51;6.87;;;5.57;;
2039;SDS011;1025;42.686;23.350;2023-04-01T07:25:20;9.90;;;6.17;;
2039;SDS011;1025;42.686;23.350;2023-04-01T07:28:49;11.17;;;5.93;;
2039;SDS011;1025;42.686;23.350;2023-04-01T07:32:17;12.57;;;5.87;;
2039;SDS011;1025;42.686;23.350;2023-04-01T07:35:21;7.73;;;5.60;;
2039;SDS011;1025;42.686;23.350;2023-04-01T07:38:09;12.13;;;6.40;;
2039;SDS011;1025;42.686;23.350;2023-04-01T07:40:47;15.90;;;8.33;;
2039;SDS011;1025;42.686;23.350;2023-04-01T07:43:39;19.43;;;9.40;;
2039;SDS011;1025;42.686;23.350;2023-04-01T07:47:18;7.53;;;5.60;;
2039;SDS011;1025;42.686;23.350;2023-04-01T07:50:12;11.33;;;6.33;;
2039;SDS011;1025;42.686;23.350;2023-04-01T07:53:12;10.60;;;5.80;;
2039;SDS011;1025;42.686;23.350;2023-04-01T07:56:31;10.20;;;5.20;;
2039;SDS011;1025;42.686;23.350;2023-04-01T07:59:10;9.13;;;5.03;;
2039;SDS011;1025;42.686;23.350;2023-04-01T08:02:28;10.43;;;5.93;;
2039;SDS011;1025;42.686;23.350;2023-04-01T08:06:00;10.37;;;5.50;;
2039;SDS011;1025;42.686;23.350;2023-04-01T08:09:22;5.63;;;4.83;;
2039;SDS011;1025;42.686;23.350;2023-04-01T08:12:18;12.77;;;5.50;;
2039;SDS011;1025;42.686;23.350;2023-04-01T08:15:10;6.47;;;4.57;;
2039;SDS011;1025;42.686;23.350;2023-04-01T08:18:17;7.37;;;4.70;;
2039;SDS011;1025;42.686;23.350;2023-04-01T08:20:56;14.60;;;6.60;;
2039;SDS011;1025;42.686;23.350;2023-04-01T08:23:54;13.43;;;4.87;;
2039;SDS011;1025;42.686;23.350;2023-04-01T08:26:37;14.30;;;5.40;;
2039;SDS011;1025;42.686;23.350;2023-04-01T08:29:09;10.50;;;7.00;;
2039;SDS011;1025;42.686;23.350;2023-04-01T08:32:08;8.43;;;4.37;;
2039;SDS011;1025;42.686;23.350;2023-04-01T08:35:37;14.13;;;6.90;;
2039;SDS011;1025;42.686;23.350;2023-04-01T08:39:06;12.30;;;6.77;;
2039;SDS011;1025;42.686;23.350;2023-04-01T08:42:48;11.03;;;6.57;;
2039;SDS011;1025;42.686;23.350;2023-04-01T08:50:42;12.03;;;5.50;;
2039;SDS011;1025;42.686;23.350;2023-04-01T08:54:00;5.30;;;4.80;;
2039;SDS011;1025;42.686;23.350;2023-04-01T08:57:43;7.27;;;4.03;;
2039;SDS011;1025;42.686;23.350;2023-04-01T09:00:53;12.50;;;6.77;;
2039;SDS011;1025;42.686;23.350;2023-04-01T09:03:40;9.17;;;5.57;;
2039;SDS011;1025;42.686;23.350;2023-04-01T09:07:29;12.40;;;5.93;;
2039;SDS011;1025;42.686;23.350;2023-04-01T09:22:09;7.53;;;3.50;;
2039;SDS011;1025;42.686;23.350;2023-04-01T09:28:55;4.40;;;3.20;;
2039;SDS011;1025;42.686;23.350;2023-04-01T09:31:52;5.90;;;2.90;;
2039;SDS011;1025;42.686;23.350;2023-04-01T09:35:45;3.97;;;2.83;;
2039;SDS011;1025;42.686;23.350;2023-04-01T09:39:17;4.20;;;3.60;;
2039;SDS011;1025;42.686;23.350;2023-04-01T09:42:56;5.30;;;3.80;;
2039;SDS011;1025;42.686;23.350;2023-04-01T09:46:31;4.47;;;3.23;;
2039;SDS011;1025;42.686;23.350;2023-04-01T09:54:01;3.73;;;3.43;;
2039;SDS011;1025;42.686;23.350;2023-04-01T09:57:53;6.27;;;4.33;;
2039;SDS011;1025;42.686;23.350;2023-04-01T10:01:46;4.50;;;3.43;;
2039;SDS011;1025;42.686;23.350;2023-04-01T10:09:45;9.93;;;3.70;;
2039;SDS011;1025;42.686;23.350;2023-04-01T10:16:42;5.93;;;2.90;;
2039;SDS011;1025;42.686;23.350;2023-04-01T10:20:00;4.43;;;4.00;;
2039;SDS011;1025;42.686;23.350;2023-04-01T10:23:20;7.47;;;4.93;;
2039;SDS011;1025;42.686;23.350;2023-04-01T10:30:58;4.40;;;3.73;;
2039;SDS011;1025;42.686;23.350;2023-04-01T10:35:03;6.83;;;4.40;;
2039;SDS011;1025;42.686;23.350;2023-04-01T10:39:01;4.20;;;3.53;;
2039;SDS011;1025;42.686;23.350;2023-04-01T10:51:01;5.60;;;4.80;;
2039;SDS011;1025;42.686;23.350;2023-04-01T10:54:49;4.97;;;4.53;;
2039;SDS011;1025;42.686;23.350;2023-04-01T11:11:12;5.60;;;4.77;;
2039;SDS011;1025;42.686;23.350;2023-04-01T11:23:00;18.90;;;17.00;;
2039;SDS011;1025;42.686;23.350;2023-04-01T11:26:43;12.10;;;10.90;;
2039;SDS011;1025;42.686;23.350;2023-04-01T11:30:29;10.50;;;7.03;;
2039;SDS011;1025;42.686;23.350;2023-04-01T11:34:07;20.07;;;8.93;;
2039;SDS011;1025;42.686;23.350;2023-04-01T11:37:57;20.80;;;4.47;;
2039;SDS011;1025;42.686;23.350;2023-04-01T11:41:33;5.90;;;3.03;;
2039;SDS011;1025;42.686;23.350;2023-04-01T11:45:13;10.10;;;3.63;;
2039;SDS011;1025;42.686;23.350;2023-04-01T11:48:49;9.43;;;3.83;;
2039;SDS011;1025;42.686;23.350;2023-04-01T11:52:34;4.00;;;3.50;;
2039;SDS011;1025;42.686;23.350;2023-04-01T11:56:09;6.27;;;2.73;;
2039;SDS011;1025;42.686;23.350;2023-04-01T11:59:48;12.07;;;4.00;;
2039;SDS011;1025;42.686;23.350;2023-04-01T12:07:27;5.27;;;4.03;;
2039;SDS011;1025;42.686;23.350;2023-04-01T12:11:04;6.20;;;5.67;;
2039;SDS011;1025;42.686;23.350;2023-04-01T12:14:39;8.23;;;5.23;;
2039;SDS011;1025;42.686;23.350;2023-04-01T12:18:20;8.67;;;5.07;;
2039;SDS011;1025;42.686;23.350;2023-04-01T12:21:56;11.23;;;5.30;;
2039;SDS011;1025;42.686;23.350;2023-04-01T12:25:38;9.73;;;4.90;;
2039;SDS011;1025;42.686;23.350;2023-04-01T12:29:19;12.07;;;5.20;;
2039;SDS011;1025;42.686;23.350;2023-04-01T12:33:10;5.97;;;4.10;;
2039;SDS011;1025;42.686;23.350;2023-04-01T12:37:07;10.23;;;3.40;;
2039;SDS011;1025;42.686;23.350;2023-04-01T12:40:54;4.30;;;3.90;;
2039;SDS011;1025;42.686;23.350;2023-04-01T12:44:47;4.53;;;3.13;;
2039;SDS011;1025;42.686;23.350;2023-04-01T12:48:32;4.23;;;3.50;;
2039;SDS011;1025;42.686;23.350;2023-04-01T12:52:14;4.73;;;3.50;;
2039;SDS011;1025;42.686;23.350;2023-04-01T12:56:06;9.73;;;4.40;;
2039;SDS011;1025;42.686;23.350;2023-04-01T12:59:50;7.83;;;3.83;;
2039;SDS011;1025;42.686;23.350;2023-04-01T13:03:53;4.30;;;4.00;;
2039;SDS011;1025;42.686;23.350;2023-04-01T13:07:50;6.00;;;2.70;;
2039;SDS011;1025;42.686;23.350;2023-04-01T13:11:24;8.23;;;5.83;;
2039;SDS011;1025;42.686;23.350;2023-04-01T13:15:11;4.20;;;3.80;;
2039;SDS011;1025;42.686;23.350;2023-04-01T13:18:45;3.43;;;3.20;;
2039;SDS011;1025;42.686;23.350;2023-04-01T13:22:17;5.77;;;4.00;;
2039;SDS011;1025;42.686;23.350;2023-04-01T13:25:50;5.07;;;3.93;;
2039;SDS011;1025;42.686;23.350;2023-04-01T13:29:25;14.23;;;12.83;;
2039;SDS011;1025;42.686;23.350;2023-04-01T13:32:54;14.87;;;10.70;;
2039;SDS011;1025;42.686;23.350;2023-04-01T13:36:34;8.17;;;7.37;;
2039;SDS011;1025;42.686;23.350;2023-04-01T13:40:15;7.90;;;5.30;;
2039;SDS011;1025;42.686;23.350;2023-04-01T13:43:52;4.87;;;3.57;;
2039;SDS011;1025;42.686;23.350;2023-04-01T13:47:36;9.53;;;4.67;;
2039;SDS011;1025;42.686;23.350;2023-04-01T13:55:20;13.40;;;10.47;;
2039;SDS011;1025;42.686;23.350;2023-04-01T13:59:05;6.43;;;5.80;;
2039;SDS011;1025;42.686;23.350;2023-04-01T14:02:59;7.07;;;6.37;;
2039;SDS011;1025;42.686;23.350;2023-04-01T14:06:56;5.50;;;4.47;;
2039;SDS011;1025;42.686;23.350;2023-04-01T14:10:31;6.07;;;5.50;;
2039;SDS011;1025;42.686;23.350;2023-04-01T14:14:08;4.73;;;4.23;;
2039;SDS011;1025;42.686;23.350;2023-04-01T14:17:54;4.27;;;3.70;;
2039;SDS011;1025;42.686;23.350;2023-04-01T14:21:32;7.57;;;4.73;;
2039;SDS011;1025;42.686;23.350;2023-04-01T14:25:20;6.30;;;3.77;;
2039;SDS011;1025;42.686;23.350;2023-04-01T14:29:13;7.40;;;4.30;;
2039;SDS011;1025;42.686;23.350;2023-04-01T14:32:55;3.63;;;3.33;;
2039;SDS011;1025;42.686;23.350;2023-04-01T14:36:34;8.47;;;3.90;;
2039;SDS011;1025;42.686;23.350;2023-04-01T14:40:28;6.37;;;4.50;;
2039;SDS011;1025;42.686;23.350;2023-04-01T14:44:05;4.80;;;3.77;;
2039;SDS011;1025;42.686;23.350;2023-04-01T14:47:51;5.30;;;4.10;;
2039;SDS011;1025;42.686;23.350;2023-04-01T14:51:19;4.13;;;3.43;;
2039;SDS011;1025;42.686;23.350;2023-04-01T14:54:51;6.70;;;3.43;;
2039;SDS011;1025;42.686;23.350;2023-04-01T14:58:19;13.30;;;4.40;;
2039;SDS011;1025;42.686;23.350;2023-04-01T15:01:55;6.83;;;3.50;;
2039;SDS011;1025;42.686;23.350;2023-04-01T15:05:36;4.30;;;3.37;;
2039;SDS011;1025;42.686;23.350;2023-04-01T15:09:16;6.57;;;3.80;;
2039;SDS011;1025;42.686;23.350;2023-04-01T15:13:00;3.83;;;3.00;;
2039;SDS011;1025;42.686;23.350;2023-04-01T15:16:49;7.77;;;3.33;;
2039;SDS011;1025;42.686;23.350;2023-04-01T15:20:29;5.27;;;3.00;;
2039;SDS011;1025;42.686;23.350;2023-04-01T15:24:10;5.00;;;3.80;;
2039;SDS011;1025;42.686;23.350;2023-04-01T15:27:49;3.90;;;3.60;;
2039;SDS011;1025;42.686;23.350;2023-04-01T15:31:29;3.80;;;3.50;;
2039;SDS011;1025;42.686;23.350;2023-04-01T15:35:06;3.83;;;3.50;;
2039;SDS011;1025;42.686;23.350;2023-04-01T15:38:43;3.37;;;3.17;;
2039;SDS011;1025;42.686;23.350;2023-04-01T15:42:23;7.67;;;3.83;;
2039;SDS011;1025;42.686;23.350;2023-04-01T15:46:08;8.30;;;4.43;;
2039;SDS011;1025;42.686;23.350;2023-04-01T15:49:52;8.20;;;5.30;;
2039;SDS011;1025;42.686;23.350;2023-04-01T15:53:50;5.67;;;3.50;;
2039;SDS011;1025;42.686;23.350;2023-04-01T15:57:28;3.57;;;1.83;;
2039;SDS011;1025;42.686;23.350;2023-04-01T16:01:15;2.20;;;2.10;;
2039;SDS011;1025;42.686;23.350;2023-04-01T16:04:50;3.00;;;2.80;;
2039;SDS011;1025;42.686;23.350;2023-04-01T16:08:46;3.87;;;3.40;;
2039;SDS011;1025;42.686;23.350;2023-04-01T16:12:33;4.40;;;4.10;;
2039;SDS011;1025;42.686;23.350;2023-04-01T16:16:13;4.90;;;3.87;;
2039;SDS011;1025;42.686;23.350;2023-04-01T16:19:53;4.30;;;4.00;;
2039;SDS011;1025;42.686;23.350;2023-04-01T16:23:24;4.63;;;4.20;;
2039;SDS011;1025;42.686;23.350;2023-04-01T16:27:00;4.60;;;4.30;;
2039;SDS011;1025;42.686;23.350;2023-04-01T16:30:35;5.10;;;4.70;;
2039;SDS011;1025;42.686;23.350;2023-04-01T16:34:04;5.47;;;4.53;;
2039;SDS011;1025;42.686;23.350;2023-04-01T16:37:49;4.47;;;3.90;;
2039;SDS011;1025;42.686;23.350;2023-04-01T16:41:20;3.63;;;3.30;;
2039;SDS011;1025;42.686;23.350;2023-04-01T16:44:55;3.10;;;2.90;;
2039;SDS011;1025;42.686;23.350;2023-04-01T16:48:35;3.50;;;3.20;;
2039;SDS011;1025;42.686;23.350;2023-04-01T16:52:29;5.13;;;4.00;;
2039;SDS011;1025;42.686;23.350;2023-04-01T16:56:07;7.13;;;3.37;;
2039;SDS011;1025;42.686;23.350;2023-04-01T16:59:45;4.33;;;3.93;;
2039;SDS011;1025;42.686;23.350;2023-04-01T17:03:16;3.80;;;3.40;;
2039;SDS011;1025;42.686;23.350;2023-04-01T17:06:49;4.40;;;3.53;;
2039;SDS011;1025;42.686;23.350;2023-04-01T17:10:33;3.50;;;3.20;;
2039;SDS011;1025;42.686;23.350;2023-04-01T17:14:08;2.87;;;2.67;;
2039;SDS011;1025;42.686;23.350;2023-04-01T17:17:44;2.30;;;2.10;;
2039;SDS011;1025;42.686;23.350;2023-04-01T17:21:13;2.77;;;2.57;;
2039;SDS011;1025;42.686;23.350;2023-04-01T17:24:51;3.00;;;2.80;;
2039;SDS011;1025;42.686;23.350;2023-04-01T17:28:34;2.20;;;1.97;;
2039;SDS011;1025;42.686;23.350;2023-04-01T17:32:07;3.03;;;2.83;;
2039;SDS011;1025;42.686;23.350;2023-04-01T17:35:52;2.73;;;2.53;;
2039;SDS011;1025;42.686;23.350;2023-04-01T17:39:46;2.50;;;2.30;;
2039;SDS011;1025;42.686;23.350;2023-04-01T17:43:24;2.77;;;2.57;;
2039;SDS011;1025;42.686;23.350;2023-04-01T17:47:04;3.53;;;3.23;;
2039;SDS011;1025;42.686;23.350;2023-04-01T17:50:44;4.97;;;3.63;;
2039;SDS011;1025;42.686;23.350;2023-04-01T17:54:21;4.07;;;3.70;;
2039;SDS011;1025;42.686;23.350;2023-04-01T17:58:19;2.70;;;2.53;;
2039;SDS011;1025;42.686;23.350;2023-04-01T18:01:51;3.20;;;2.93;;
2039;SDS011;1025;42.686;23.350;2023-04-01T18:05:30;4.03;;;3.73;;
2039;SDS011;1025;42.686;23.350;2023-04-01T18:09:04;3.53;;;3.33;;
2039;SDS011;1025;42.686;23.350;2023-04-01T18:12:56;3.37;;;3.17;;
2039;SDS011;1025;42.686;23.350;2023-04-01T18:16:50;3.80;;;3.60;;
2039;SDS011;1025;42.686;23.350;2023-04-01T18:20:34;3.63;;;3.43;;
2039;SDS011;1025;42.686;23.350;2023-04-01T18:24:11;2.90;;;2.70;;
2039;SDS011;1025;42.686;23.350;2023-04-01T18:27:22;3.50;;;3.30;;
2039;SDS011;1025;42.686;23.350;2023-04-01T18:30:54;3.37;;;3.07;;
2039;SDS011;1025;42.686;23.350;2023-04-01T18:34:37;2.40;;;2.30;;
2039;SDS011;1025;42.686;23.350;2023-04-01T18:38:13;3.57;;;3.37;;
2039;SDS011;1025;42.686;23.350;2023-04-01T18:40:58;3.10;;;2.90;;
2039;SDS011;1025;42.686;23.350;2023-04-01T18:43:42;3.57;;;3.37;;
2039;SDS011;1025;42.686;23.350;2023-04-01T18:46:30;3.60;;;3.30;;
2039;SDS011;1025;42.686;23.350;2023-04-01T18:49:11;3.27;;;3.07;;
2039;SDS011;1025;42.686;23.350;2023-04-01T18:52:20;4.20;;;3.60;;
2039;SDS011;1025;42.686;23.350;2023-04-01T18:55:21;10.93;;;4.30;;
2039;SDS011;1025;42.686;23.350;2023-04-01T19:01:24;6.67;;;3.90;;
2039;SDS011;1025;42.686;23.350;2023-04-01T19:04:20;5.23;;;3.73;;
2039;SDS011;1025;42.686;23.350;2023-04-01T19:07:46;5.83;;;3.90;;
2039;SDS011;1025;42.686;23.350;2023-04-01T19:10:45;3.43;;;3.20;;
2039;SDS011;1025;42.686;23.350;2023-04-01T19:13:38;5.60;;;3.20;;
2039;SDS011;1025;42.686;23.350;2023-04-01T19:17:16;8.77;;;3.47;;
2039;SDS011;1025;42.686;23.350;2023-04-01T19:20:56;16.63;;;3.50;;
2039;SDS011;1025;42.686;23.350;2023-04-01T19:28:16;5.67;;;4.30;;
2039;SDS011;1025;42.686;23.350;2023-04-01T19:31:54;2.90;;;2.70;;
2039;SDS011;1025;42.686;23.350;2023-04-01T19:35:30;3.67;;;2.47;;
2039;SDS011;1025;42.686;23.350;2023-04-01T19:39:05;2.33;;;1.90;;
2039;SDS011;1025;42.686;23.350;2023-04-01T19:42:32;4.70;;;2.50;;
2039;SDS011;1025;42.686;23.350;2023-04-01T19:46:17;4.50;;;2.40;;
2039;SDS011;1025;42.686;23.350;2023-04-01T19:49:50;3.97;;;2.60;;
2039;SDS011;1025;42.686;23.350;2023-04-01T19:53:23;3.73;;;3.10;;
2039;SDS011;1025;42.686;23.350;2023-04-01T19:56:58;4.87;;;1.50;;
2039;SDS011;1025;42.686;23.350;2023-04-01T20:00:31;2.17;;;1.80;;
2039;SDS011;1025;42.686;23.350;2023-04-01T20:04:03;2.37;;;2.17;;
2039;SDS011;1025;42.686;23.350;2023-04-01T20:07:43;3.10;;;2.37;;
2039;SDS011;1025;42.686;23.350;2023-04-01T20:11:21;2.20;;;1.87;;
2039;SDS011;1025;42.686;23.350;2023-04-01T20:14:56;2.20;;;2.10;;
2039;SDS011;1025;42.686;23.350;2023-04-01T20:18:26;2.20;;;2.00;;
2039;SDS011;1025;42.686;23.350;2023-04-01T20:22:04;2.80;;;2.23;;
2039;SDS011;1025;42.686;23.350;2023-04-01T20:25:48;2.97;;;2.67;;
2039;SDS011;1025;42.686;23.350;2023-04-01T20:29:27;10.50;;;3.60;;
2039;SDS011;1025;42.686;23.350;2023-04-01T20:37:34;3.17;;;2.50;;
2039;SDS011;1025;42.686;23.350;2023-04-01T20:41:25;2.37;;;2.20;;
2039;SDS011;1025;42.686;23.350;2023-04-01T20:45:17;2.17;;;1.97;;
2039;SDS011;1025;42.686;23.350;2023-04-01T20:52:48;3.23;;;3.00;;
2039;SDS011;1025;42.686;23.350;2023-04-01T20:56:26;6.77;;;2.30;;
2039;SDS011;1025;42.686;23.350;2023-04-01T20:59:24;2.90;;;2.27;;
2039;SDS011;1025;42.686;23.350;2023-04-01T21:02:32;8.07;;;3.63;;
2039;SDS011;1025;42.686;23.350;2023-04-01T21:06:09;8.73;;;2.37;;
2039;SDS011;1025;42.686;23.350;2023-04-01T21:09:02;5.77;;;2.53;;
2039;SDS011;1025;42.686;23.350;2023-04-01T21:12:46;3.10;;;2.77;;
2039;SDS011;1025;42.686;23.350;2023-04-01T21:16:25;3.73;;;2.00;;
2039;SDS011;1025;42.686;23.350;2023-04-01T21:20:02;9.70;;;2.63;;
2039;SDS011;1025;42.686;23.350;2023-04-01T21:23:52;4.73;;;2.63;;
2039;SDS011;1025;42.686;23.350;2023-04-01T21:27:36;2.30;;;2.03;;
2039;SDS011;1025;42.686;23.350;2023-04-01T21:31:21;2.80;;;2.03;;
2039;SDS011;1025;42.686;23.350;2023-04-01T21:35:02;5.13;;;2.40;;
2039;SDS011;1025;42.686;23.350;2023-04-01T21:38:42;4.50;;;1.70;;
2039;SDS011;1025;42.686;23.350;2023-04-01T21:42:17;6.40;;;2.23;;
2039;SDS011;1025;42.686;23.350;2023-04-01T21:46:03;2.40;;;2.10;;
2039;SDS011;1025;42.686;23.350;2023-04-01T21:50:04;1.70;;;1.60;;
2039;SDS011;1025;42.686;23.350;2023-04-01T21:54:04;2.70;;;1.90;;
2039;SDS011;1025;42.686;23.350;2023-04-01T21:57:54;1.60;;;1.50;;
2039;SDS011;1025;42.686;23.350;2023-04-01T22:01:50;1.73;;;1.60;;
2039;SDS011;1025;42.686;23.350;2023-04-01T22:05:39;4.30;;;3.63;;
2039;SDS011;1025;42.686;23.350;2023-04-01T22:08:15;1.67;;;1.57;;
2039;SDS011;1025;42.686;23.350;2023-04-01T22:11:49;8.83;;;1.70;;
2039;SDS011;1025;42.686;23.350;2023-04-01T22:15:23;6.30;;;2.30;;
2039;SDS011;1025;42.686;23.350;2023-04-01T22:18:56;4.53;;;2.33;;
2039;SDS011;1025;42.686;23.350;2023-04-01T22:22:45;2.40;;;2.20;;
2039;SDS011;1025;42.686;23.350;2023-04-01T22:26:22;3.90;;;2.33;;
2039;SDS011;1025;42.686;23.350;2023-04-01T22:29:58;3.07;;;2.30;;
2039;SDS011;1025;42.686;23.350;2023-04-01T22:33:29;2.60;;;2.40;;
2039;SDS011;1025;42.686;23.350;2023-04-01T22:37:04;5.33;;;2.00;;
2039;SDS011;1025;42.686;23.350;2023-04-01T22:40:39;2.73;;;2.00;;
2039;SDS011;1025;42.686;23.350;2023-04-01T22:44:28;3.10;;;1.90;;
2039;SDS011;1025;42.686;23.350;2023-04-01T22:48:05;9.60;;;3.10;;